Aérodrome :
LOGIN :

S'inscrire | Disclaimer

   EN    FR    IT 

 










Légende :    VFR   VFR Marginal   IFR   IFR Intensif   IFR Très Intensif
Visi : 
Plafond : 
>= 8 km
>= 3000ft
5 à 8 km
1000 à 3000 ft
1500m à 5 km
500 à 1000 ft
800 à 1500m
200 à 500 ft
< 800m
< 200 ft
Symboles :   Orages  Brouillard  Fortes neiges  Fortes précipitations  Vent > 20 kt
SIGMETs :   Divers  Orages  Givrage  Turbulence  Onde Orograph.  Cendres Volcan.






- Altitude de l'aérodrome : 82 ft
- Code IATA : QIE


LFMI - Istres

DERNIER METAR :
  • 081230Z AUTO 18011KT CAVOK 21/02 Q1025 NOSIG

METARs EXPIRÉS :
  • 081200Z AUTO 19010KT CAVOK 21/01 Q1025 NOSIG
  • 081130Z AUTO 19011KT CAVOK 21/01 Q1025 NOSIG
  • 081100Z AUTO 19010KT CAVOK 21/03 Q1026 NOSIG
  • 081030Z AUTO 18008KT 140V210 CAVOK 21/03 Q1026 NOSIG
  • 081000Z AUTO 21006KT 160V240 CAVOK 21/03 Q1026 NOSIG

TAF TAF LFMI
Valide du 08 à 09h jusqu'au 09 à 09h UTC


080800Z 0809/0909 10008KT CAVOK
BECMG 0810/0812 19012KT
BECMG 0819/0821 04005KT



MET'MAP, la Météo Aéronautique d'un coup d'oeil ! - Copyright ORBIFLY Décembre 2007 - Disclaimer

ORBIFLY MET'MAP TEAM :

Programmation & Développement : Alexandra Zaïnal
Sur une idée originale de : Baudouin d'Aumeries
Assistance à la programmation : Marc-Olivier Méhu
Soutien technique & logistique : Manuel Goepfert

Contact : metmap@orbifly.com




SOURCES & CREDITS :

   NOAA